sensor_id;sensor_type;location;lat;lon;timestamp;temperature;humidity
3705;DHT22;1868;48.918;9.438;2022-11-11T00:02:30;4.70;97.40
3705;DHT22;1868;48.918;9.438;2022-11-11T00:05:17;4.60;97.40
3705;DHT22;1868;48.918;9.438;2022-11-11T00:08:05;4.60;97.40
3705;DHT22;1868;48.918;9.438;2022-11-11T00:10:52;4.60;97.40
3705;DHT22;1868;48.918;9.438;2022-11-11T00:13:39;4.60;97.40
3705;DHT22;1868;48.918;9.438;2022-11-11T00:16:26;4.60;97.40
3705;DHT22;1868;48.918;9.438;2022-11-11T00:19:33;4.60;97.40
3705;DHT22;1868;48.918;9.438;2022-11-11T00:22:38;4.60;97.40
3705;DHT22;1868;48.918;9.438;2022-11-11T00:25:44;4.60;97.40
3705;DHT22;1868;48.918;9.438;2022-11-11T00:28:30;4.50;97.40
3705;DHT22;1868;48.918;9.438;2022-11-11T00:31:17;4.50;97.40
3705;DHT22;1868;48.918;9.438;2022-11-11T00:34:04;4.50;97.40
3705;DHT22;1868;48.918;9.438;2022-11-11T00:36:50;4.50;97.40
3705;DHT22;1868;48.918;9.438;2022-11-11T00:39:36;4.50;97.40
3705;DHT22;1868;48.918;9.438;2022-11-11T00:42:25;4.50;97.40
3705;DHT22;1868;48.918;9.438;2022-11-11T00:45:12;4.50;97.40
3705;DHT22;1868;48.918;9.438;2022-11-11T00:47:58;4.40;97.40
3705;DHT22;1868;48.918;9.438;2022-11-11T00:51:03;4.40;97.40
3705;DHT22;1868;48.918;9.438;2022-11-11T00:53:49;4.30;97.40
3705;DHT22;1868;48.918;9.438;2022-11-11T00:56:36;4.20;97.40
3705;DHT22;1868;48.918;9.438;2022-11-11T00:59:25;4.20;97.40
3705;DHT22;1868;48.918;9.438;2022-11-11T01:02:11;4.20;97.40
3705;DHT22;1868;48.918;9.438;2022-11-11T01:04:58;4.20;97.40
3705;DHT22;1868;48.918;9.438;2022-11-11T01:07:48;4.20;97.40
3705;DHT22;1868;48.918;9.438;2022-11-11T01:10:36;4.10;97.40
3705;DHT22;1868;48.918;9.438;2022-11-11T01:13:25;4.10;97.40
3705;DHT22;1868;48.918;9.438;2022-11-11T01:16:16;4.00;97.40
3705;DHT22;1868;48.918;9.438;2022-11-11T01:19:04;4.00;97.40
3705;DHT22;1868;48.918;9.438;2022-11-11T01:21:51;4.00;97.40
3705;DHT22;1868;48.918;9.438;2022-11-11T01:24:38;4.00;97.40
3705;DHT22;1868;48.918;9.438;2022-11-11T01:27:25;4.00;97.40
3705;DHT22;1868;48.918;9.438;2022-11-11T01:30:12;4.00;97.40
3705;DHT22;1868;48.918;9.438;2022-11-11T01:33:00;3.90;97.40
3705;DHT22;1868;48.918;9.438;2022-11-11T01:35:48;3.90;97.40
3705;DHT22;1868;48.918;9.438;2022-11-11T01:38:35;3.90;97.40
3705;DHT22;1868;48.918;9.438;2022-11-11T01:41:28;3.90;97.40
3705;DHT22;1868;48.918;9.438;2022-11-11T01:44:40;3.80;97.40
3705;DHT22;1868;48.918;9.438;2022-11-11T01:47:29;3.80;97.40
3705;DHT22;1868;48.918;9.438;2022-11-11T01:50:59;3.80;97.40
3705;DHT22;1868;48.918;9.438;2022-11-11T01:53:48;3.80;97.40
3705;DHT22;1868;48.918;9.438;2022-11-11T01:56:41;3.80;97.40
3705;DHT22;1868;48.918;9.438;2022-11-11T01:59:30;3.80;97.40
3705;DHT22;1868;48.918;9.438;2022-11-11T02:02:21;3.70;97.40
3705;DHT22;1868;48.918;9.438;2022-11-11T02:05:12;3.70;97.40
3705;DHT22;1868;48.918;9.438;2022-11-11T02:08:21;3.70;97.40
3705;DHT22;1868;48.918;9.438;2022-11-11T02:11:19;3.60;97.40
3705;DHT22;1868;48.918;9.438;2022-11-11T02:14:21;3.60;97.40
3705;DHT22;1868;48.918;9.438;2022-11-11T02:17:26;3.60;97.40
3705;DHT22;1868;48.918;9.438;2022-11-11T02:20:18;3.60;97.40
3705;DHT22;1868;48.918;9.438;2022-11-11T02:23:09;3.60;97.40
3705;DHT22;1868;48.918;9.438;2022-11-11T02:26:00;3.60;97.40
3705;DHT22;1868;48.918;9.438;2022-11-11T02:28:48;3.60;97.40
3705;DHT22;1868;48.918;9.438;2022-11-11T02:31:36;3.60;97.40
3705;DHT22;1868;48.918;9.438;2022-11-11T02:34:28;3.60;97.40
3705;DHT22;1868;48.918;9.438;2022-11-11T02:37:19;3.70;97.40
3705;DHT22;1868;48.918;9.438;2022-11-11T02:40:08;3.70;97.40
3705;DHT22;1868;48.918;9.438;2022-11-11T02:42:58;3.70;97.40
3705;DHT22;1868;48.918;9.438;2022-11-11T02:45:45;3.70;97.40
3705;DHT22;1868;48.918;9.438;2022-11-11T02:48:32;3.60;97.40
3705;DHT22;1868;48.918;9.438;2022-11-11T02:51:18;3.60;97.40
3705;DHT22;1868;48.918;9.438;2022-11-11T02:54:05;3.60;97.40
3705;DHT22;1868;48.918;9.438;2022-11-11T02:56:53;3.50;97.40
3705;DHT22;1868;48.918;9.438;2022-11-11T02:59:58;3.50;97.40
3705;DHT22;1868;48.918;9.438;2022-11-11T03:02:46;3.50;97.40
3705;DHT22;1868;48.918;9.438;2022-11-11T03:05:33;3.50;97.40
3705;DHT22;1868;48.918;9.438;2022-11-11T03:08:21;3.50;97.40
3705;DHT22;1868;48.918;9.438;2022-11-11T03:11:08;3.50;97.40
3705;DHT22;1868;48.918;9.438;2022-11-11T03:13:54;3.40;97.40
3705;DHT22;1868;48.918;9.438;2022-11-11T03:16:43;3.40;97.40
3705;DHT22;1868;48.918;9.438;2022-11-11T03:19:48;3.40;97.40
3705;DHT22;1868;48.918;9.438;2022-11-11T03:22:34;3.40;97.40
3705;DHT22;1868;48.918;9.438;2022-11-11T03:25:43;3.40;97.40
3705;DHT22;1868;48.918;9.438;2022-11-11T03:28:30;3.30;97.40
3705;DHT22;1868;48.918;9.438;2022-11-11T03:31:16;3.30;97.40
3705;DHT22;1868;48.918;9.438;2022-11-11T03:34:04;3.30;97.40
3705;DHT22;1868;48.918;9.438;2022-11-11T03:37:04;3.30;97.40
3705;DHT22;1868;48.918;9.438;2022-11-11T03:40:10;3.30;97.40
3705;DHT22;1868;48.918;9.438;2022-11-11T03:42:57;3.40;97.40
3705;DHT22;1868;48.918;9.438;2022-11-11T03:45:49;3.40;97.40
3705;DHT22;1868;48.918;9.438;2022-11-11T03:48:36;3.40;97.40
3705;DHT22;1868;48.918;9.438;2022-11-11T03:51:24;3.40;97.40
3705;DHT22;1868;48.918;9.438;2022-11-11T03:54:11;3.40;97.40
3705;DHT22;1868;48.918;9.438;2022-11-11T03:56:58;3.40;97.40
3705;DHT22;1868;48.918;9.438;2022-11-11T03:59:59;3.40;97.40
3705;DHT22;1868;48.918;9.438;2022-11-11T04:02:46;3.40;97.40
3705;DHT22;1868;48.918;9.438;2022-11-11T04:05:50;3.40;97.40
3705;DHT22;1868;48.918;9.438;2022-11-11T04:09:02;3.30;97.40
3705;DHT22;1868;48.918;9.438;2022-11-11T04:12:07;3.30;97.40
3705;DHT22;1868;48.918;9.438;2022-11-11T04:14:53;3.30;97.40
3705;DHT22;1868;48.918;9.438;2022-11-11T04:17:58;3.30;97.40
3705;DHT22;1868;48.918;9.438;2022-11-11T04:20:48;3.30;97.40
3705;DHT22;1868;48.918;9.438;2022-11-11T04:23:53;3.30;97.40
3705;DHT22;1868;48.918;9.438;2022-11-11T04:26:41;3.30;97.40
3705;DHT22;1868;48.918;9.438;2022-11-11T04:29:28;3.30;97.40
3705;DHT22;1868;48.918;9.438;2022-11-11T04:32:17;3.30;97.40
3705;DHT22;1868;48.918;9.438;2022-11-11T04:35:23;3.20;97.40
3705;DHT22;1868;48.918;9.438;2022-11-11T04:38:11;3.20;97.40
3705;DHT22;1868;48.918;9.438;2022-11-11T04:41:15;3.20;97.40
3705;DHT22;1868;48.918;9.438;2022-11-11T04:44:03;3.10;97.40
3705;DHT22;1868;48.918;9.438;2022-11-11T04:47:12;3.10;97.40
3705;DHT22;1868;48.918;9.438;2022-11-11T04:49:59;3.10;97.40
3705;DHT22;1868;48.918;9.438;2022-11-11T04:52:52;3.10;97.40
3705;DHT22;1868;48.918;9.438;2022-11-11T04:55:40;3.10;97.40
3705;DHT22;1868;48.918;9.438;2022-11-11T04:58:45;3.00;97.40
3705;DHT22;1868;48.918;9.438;2022-11-11T05:01:33;3.00;97.40
3705;DHT22;1868;48.918;9.438;2022-11-11T05:04:37;3.00;97.40
3705;DHT22;1868;48.918;9.438;2022-11-11T05:07:24;3.00;97.40
3705;DHT22;1868;48.918;9.438;2022-11-11T05:10:29;3.10;97.40
3705;DHT22;1868;48.918;9.438;2022-11-11T05:13:16;3.00;97.40
3705;DHT22;1868;48.918;9.438;2022-11-11T05:16:22;3.10;97.40
3705;DHT22;1868;48.918;9.438;2022-11-11T05:19:30;3.10;97.40
3705;DHT22;1868;48.918;9.438;2022-11-11T05:22:36;3.10;97.40
3705;DHT22;1868;48.918;9.438;2022-11-11T05:25:24;3.10;97.40
3705;DHT22;1868;48.918;9.438;2022-11-11T05:28:10;3.10;97.40
3705;DHT22;1868;48.918;9.438;2022-11-11T05:30:57;3.10;97.40
3705;DHT22;1868;48.918;9.438;2022-11-11T05:33:43;3.20;97.40
3705;DHT22;1868;48.918;9.438;2022-11-11T05:36:31;3.30;97.40
3705;DHT22;1868;48.918;9.438;2022-11-11T05:39:18;3.30;97.40
3705;DHT22;1868;48.918;9.438;2022-11-11T05:42:05;3.20;97.40
3705;DHT22;1868;48.918;9.438;2022-11-11T05:44:52;3.20;97.40
3705;DHT22;1868;48.918;9.438;2022-11-11T05:47:38;3.20;97.40
3705;DHT22;1868;48.918;9.438;2022-11-11T05:50:25;3.20;97.40
3705;DHT22;1868;48.918;9.438;2022-11-11T05:53:14;3.20;97.40
3705;DHT22;1868;48.918;9.438;2022-11-11T05:56:01;3.20;97.40
3705;DHT22;1868;48.918;9.438;2022-11-11T05:58:48;3.20;97.40
3705;DHT22;1868;48.918;9.438;2022-11-11T06:01:36;3.10;97.40
3705;DHT22;1868;48.918;9.438;2022-11-11T06:04:23;3.10;97.40
3705;DHT22;1868;48.918;9.438;2022-11-11T06:07:10;3.10;97.40
3705;DHT22;1868;48.918;9.438;2022-11-11T06:09:58;3.10;97.40
3705;DHT22;1868;48.918;9.438;2022-11-11T06:13:04;3.10;97.40
3705;DHT22;1868;48.918;9.438;2022-11-11T06:15:55;3.10;97.40
3705;DHT22;1868;48.918;9.438;2022-11-11T06:18:42;3.10;97.40
3705;DHT22;1868;48.918;9.438;2022-11-11T06:21:30;3.10;97.40
3705;DHT22;1868;48.918;9.438;2022-11-11T06:24:17;3.00;97.40
3705;DHT22;1868;48.918;9.438;2022-11-11T06:27:11;3.00;97.40
3705;DHT22;1868;48.918;9.438;2022-11-11T06:29:58;3.00;97.40
3705;DHT22;1868;48.918;9.438;2022-11-11T06:33:04;3.00;97.40
3705;DHT22;1868;48.918;9.438;2022-11-11T06:35:52;3.10;97.40
3705;DHT22;1868;48.918;9.438;2022-11-11T06:38:39;3.00;97.40
3705;DHT22;1868;48.918;9.438;2022-11-11T06:41:26;3.10;97.40
3705;DHT22;1868;48.918;9.438;2022-11-11T06:44:14;3.10;97.40
3705;DHT22;1868;48.918;9.438;2022-11-11T06:47:00;3.10;97.40
3705;DHT22;1868;48.918;9.438;2022-11-11T06:49:47;3.20;97.40
3705;DHT22;1868;48.918;9.438;2022-11-11T06:52:34;3.20;97.40
3705;DHT22;1868;48.918;9.438;2022-11-11T06:55:20;3.30;97.40
3705;DHT22;1868;48.918;9.438;2022-11-11T06:58:09;3.30;97.40
3705;DHT22;1868;48.918;9.438;2022-11-11T07:00:58;3.40;97.40
3705;DHT22;1868;48.918;9.438;2022-11-11T07:03:45;3.40;97.40
3705;DHT22;1868;48.918;9.438;2022-11-11T07:06:32;3.50;97.40
3705;DHT22;1868;48.918;9.438;2022-11-11T07:09:19;3.60;97.40
3705;DHT22;1868;48.918;9.438;2022-11-11T07:12:07;3.70;97.40
3705;DHT22;1868;48.918;9.438;2022-11-11T07:14:54;3.80;97.40
3705;DHT22;1868;48.918;9.438;2022-11-11T07:17:42;3.90;97.40
3705;DHT22;1868;48.918;9.438;2022-11-11T07:20:29;3.90;97.40
3705;DHT22;1868;48.918;9.438;2022-11-11T07:23:16;4.00;97.40
3705;DHT22;1868;48.918;9.438;2022-11-11T07:26:02;4.20;97.40
3705;DHT22;1868;48.918;9.438;2022-11-11T07:28:49;4.30;97.40
3705;DHT22;1868;48.918;9.438;2022-11-11T07:31:36;4.40;97.40
3705;DHT22;1868;48.918;9.438;2022-11-11T07:34:24;4.50;97.40
3705;DHT22;1868;48.918;9.438;2022-11-11T07:37:12;4.60;97.40
3705;DHT22;1868;48.918;9.438;2022-11-11T07:39:59;4.70;97.40
3705;DHT22;1868;48.918;9.438;2022-11-11T07:42:46;4.90;97.40
3705;DHT22;1868;48.918;9.438;2022-11-11T07:45:32;5.20;97.40
3705;DHT22;1868;48.918;9.438;2022-11-11T07:48:19;5.40;97.40
3705;DHT22;1868;48.918;9.438;2022-11-11T07:51:07;5.50;97.40
3705;DHT22;1868;48.918;9.438;2022-11-11T07:53:54;5.70;97.40
3705;DHT22;1868;48.918;9.438;2022-11-11T07:56:41;5.80;97.40
3705;DHT22;1868;48.918;9.438;2022-11-11T07:59:28;5.80;97.40
3705;DHT22;1868;48.918;9.438;2022-11-11T08:02:15;6.00;97.40
3705;DHT22;1868;48.918;9.438;2022-11-11T08:05:03;6.20;97.40
3705;DHT22;1868;48.918;9.438;2022-11-11T08:07:51;6.40;97.40
3705;DHT22;1868;48.918;9.438;2022-11-11T08:10:38;6.60;97.40
3705;DHT22;1868;48.918;9.438;2022-11-11T08:13:25;6.70;97.40
3705;DHT22;1868;48.918;9.438;2022-11-11T08:16:25;6.90;97.40
3705;DHT22;1868;48.918;9.438;2022-11-11T08:19:12;7.00;97.40
3705;DHT22;1868;48.918;9.438;2022-11-11T08:21:59;7.20;97.40
3705;DHT22;1868;48.918;9.438;2022-11-11T08:24:47;7.50;97.40
3705;DHT22;1868;48.918;9.438;2022-11-11T08:27:49;7.80;97.40
3705;DHT22;1868;48.918;9.438;2022-11-11T08:30:36;8.20;97.40
3705;DHT22;1868;48.918;9.438;2022-11-11T08:33:22;8.60;97.40
3705;DHT22;1868;48.918;9.438;2022-11-11T08:36:18;8.80;97.40
3705;DHT22;1868;48.918;9.438;2022-11-11T08:39:06;9.30;97.40
3705;DHT22;1868;48.918;9.438;2022-11-11T08:41:54;9.80;97.40
3705;DHT22;1868;48.918;9.438;2022-11-11T08:44:41;10.40;97.40
3705;DHT22;1868;48.918;9.438;2022-11-11T08:47:28;10.60;97.40
3705;DHT22;1868;48.918;9.438;2022-11-11T08:50:15;10.90;97.40
3705;DHT22;1868;48.918;9.438;2022-11-11T08:53:02;11.10;97.40
3705;DHT22;1868;48.918;9.438;2022-11-11T08:55:49;10.90;97.40
3705;DHT22;1868;48.918;9.438;2022-11-11T08:58:38;10.50;97.40
3705;DHT22;1868;48.918;9.438;2022-11-11T09:01:24;10.20;97.40
3705;DHT22;1868;48.918;9.438;2022-11-11T09:04:11;10.00;97.40
3705;DHT22;1868;48.918;9.438;2022-11-11T09:07:18;9.90;97.40
3705;DHT22;1868;48.918;9.438;2022-11-11T09:10:06;9.70;97.40
3705;DHT22;1868;48.918;9.438;2022-11-11T09:12:55;9.60;97.40
3705;DHT22;1868;48.918;9.438;2022-11-11T09:15:44;10.40;97.40
3705;DHT22;1868;48.918;9.438;2022-11-11T09:18:30;11.50;97.40
3705;DHT22;1868;48.918;9.438;2022-11-11T09:21:17;12.90;97.40
3705;DHT22;1868;48.918;9.438;2022-11-11T09:24:04;14.40;97.40
3705;DHT22;1868;48.918;9.438;2022-11-11T09:26:52;15.60;97.40
3705;DHT22;1868;48.918;9.438;2022-11-11T09:29:38;16.10;97.40
3705;DHT22;1868;48.918;9.438;2022-11-11T09:32:27;16.80;97.40
3705;DHT22;1868;48.918;9.438;2022-11-11T09:35:13;17.60;97.40
3705;DHT22;1868;48.918;9.438;2022-11-11T09:38:00;18.10;97.40
3705;DHT22;1868;48.918;9.438;2022-11-11T09:41:05;18.40;95.70
3705;DHT22;1868;48.918;9.438;2022-11-11T09:43:59;18.40;94.30
3705;DHT22;1868;48.918;9.438;2022-11-11T09:46:53;18.70;96.20
3705;DHT22;1868;48.918;9.438;2022-11-11T09:49:55;19.20;95.60
3705;DHT22;1868;48.918;9.438;2022-11-11T09:52:48;19.50;94.30
3705;DHT22;1868;48.918;9.438;2022-11-11T09:55:40;19.60;94.10
3705;DHT22;1868;48.918;9.438;2022-11-11T09:58:31;19.20;91.10
3705;DHT22;1868;48.918;9.438;2022-11-11T10:01:22;18.90;93.10
3705;DHT22;1868;48.918;9.438;2022-11-11T10:04:26;18.80;93.80
3705;DHT22;1868;48.918;9.438;2022-11-11T10:07:30;19.30;93.60
3705;DHT22;1868;48.918;9.438;2022-11-11T10:10:26;19.40;91.90
3705;DHT22;1868;48.918;9.438;2022-11-11T10:13:22;19.90;90.70
3705;DHT22;1868;48.918;9.438;2022-11-11T10:16:19;20.00;90.10
3705;DHT22;1868;48.918;9.438;2022-11-11T10:19:22;20.50;86.80
3705;DHT22;1868;48.918;9.438;2022-11-11T10:22:21;20.50;83.60
3705;DHT22;1868;48.918;9.438;2022-11-11T10:25:18;20.80;86.40
3705;DHT22;1868;48.918;9.438;2022-11-11T10:28:11;21.10;81.90
3705;DHT22;1868;48.918;9.438;2022-11-11T10:31:03;21.20;80.40
3705;DHT22;1868;48.918;9.438;2022-11-11T10:33:56;20.90;83.00
3705;DHT22;1868;48.918;9.438;2022-11-11T10:36:47;21.10;83.60
3705;DHT22;1868;48.918;9.438;2022-11-11T10:39:49;21.70;81.20
3705;DHT22;1868;48.918;9.438;2022-11-11T10:42:43;22.40;78.40
3705;DHT22;1868;48.918;9.438;2022-11-11T10:45:38;22.70;75.80
3705;DHT22;1868;48.918;9.438;2022-11-11T10:48:39;22.70;75.60
3705;DHT22;1868;48.918;9.438;2022-11-11T10:51:34;22.50;75.20
3705;DHT22;1868;48.918;9.438;2022-11-11T10:54:28;22.60;79.90
3705;DHT22;1868;48.918;9.438;2022-11-11T10:57:22;22.70;75.90
3705;DHT22;1868;48.918;9.438;2022-11-11T11:00:12;22.70;72.80
3705;DHT22;1868;48.918;9.438;2022-11-11T11:03:05;22.80;75.00
3705;DHT22;1868;48.918;9.438;2022-11-11T11:06:04;22.80;72.60
3705;DHT22;1868;48.918;9.438;2022-11-11T11:08:54;22.90;73.50
3705;DHT22;1868;48.918;9.438;2022-11-11T11:11:48;22.60;74.30
3705;DHT22;1868;48.918;9.438;2022-11-11T11:14:42;22.60;75.00
3705;DHT22;1868;48.918;9.438;2022-11-11T11:17:35;22.90;74.60
3705;DHT22;1868;48.918;9.438;2022-11-11T11:20:24;23.40;72.40
3705;DHT22;1868;48.918;9.438;2022-11-11T11:23:10;23.30;73.20
3705;DHT22;1868;48.918;9.438;2022-11-11T11:25:57;23.50;69.40
3705;DHT22;1868;48.918;9.438;2022-11-11T11:28:54;24.10;71.50
3705;DHT22;1868;48.918;9.438;2022-11-11T11:31:43;24.50;65.50
3705;DHT22;1868;48.918;9.438;2022-11-11T11:34:46;25.00;66.30
3705;DHT22;1868;48.918;9.438;2022-11-11T11:37:48;25.90;64.00
3705;DHT22;1868;48.918;9.438;2022-11-11T11:40:47;26.50;62.00
3705;DHT22;1868;48.918;9.438;2022-11-11T11:43:36;27.30;60.50
3705;DHT22;1868;48.918;9.438;2022-11-11T11:46:27;27.60;57.40
3705;DHT22;1868;48.918;9.438;2022-11-11T11:49:25;27.50;54.60
3705;DHT22;1868;48.918;9.438;2022-11-11T11:52:26;27.00;57.40
3705;DHT22;1868;48.918;9.438;2022-11-11T11:55:31;27.40;56.90
3705;DHT22;1868;48.918;9.438;2022-11-11T11:58:27;27.20;57.00
3705;DHT22;1868;48.918;9.438;2022-11-11T12:01:26;26.80;57.70
3705;DHT22;1868;48.918;9.438;2022-11-11T12:04:48;26.70;57.70
3705;DHT22;1868;48.918;9.438;2022-11-11T12:07:58;26.80;59.00
3705;DHT22;1868;48.918;9.438;2022-11-11T12:10:56;26.00;56.10
3705;DHT22;1868;48.918;9.438;2022-11-11T12:14:00;25.40;59.80
3705;DHT22;1868;48.918;9.438;2022-11-11T12:17:13;25.20;61.40
3705;DHT22;1868;48.918;9.438;2022-11-11T12:20:13;24.50;66.10
3705;DHT22;1868;48.918;9.438;2022-11-11T12:23:25;24.10;67.60
3705;DHT22;1868;48.918;9.438;2022-11-11T12:26:27;24.40;67.90
3705;DHT22;1868;48.918;9.438;2022-11-11T12:29:34;24.60;66.60
3705;DHT22;1868;48.918;9.438;2022-11-11T12:32:37;24.80;65.70
3705;DHT22;1868;48.918;9.438;2022-11-11T12:35:45;24.90;65.30
3705;DHT22;1868;48.918;9.438;2022-11-11T12:38:57;24.70;60.90
3705;DHT22;1868;48.918;9.438;2022-11-11T12:41:53;23.60;67.40
3705;DHT22;1868;48.918;9.438;2022-11-11T12:44:54;23.10;70.00
3705;DHT22;1868;48.918;9.438;2022-11-11T12:47:55;22.60;72.00
3705;DHT22;1868;48.918;9.438;2022-11-11T12:50:48;22.10;73.00
3705;DHT22;1868;48.918;9.438;2022-11-11T12:53:44;21.80;76.30
3705;DHT22;1868;48.918;9.438;2022-11-11T12:56:42;22.30;76.50
3705;DHT22;1868;48.918;9.438;2022-11-11T12:59:46;22.40;74.50
3705;DHT22;1868;48.918;9.438;2022-11-11T13:03:11;22.30;76.70
3705;DHT22;1868;48.918;9.438;2022-11-11T13:06:17;22.30;75.40
3705;DHT22;1868;48.918;9.438;2022-11-11T13:09:28;22.40;77.30
3705;DHT22;1868;48.918;9.438;2022-11-11T13:12:24;21.80;78.20
3705;DHT22;1868;48.918;9.438;2022-11-11T13:15:18;21.10;80.20
3705;DHT22;1868;48.918;9.438;2022-11-11T13:18:11;20.50;82.70
3705;DHT22;1868;48.918;9.438;2022-11-11T13:21:02;20.50;84.30
3705;DHT22;1868;48.918;9.438;2022-11-11T13:23:51;20.10;85.60
3705;DHT22;1868;48.918;9.438;2022-11-11T13:26:42;20.10;86.20
3705;DHT22;1868;48.918;9.438;2022-11-11T13:33:16;19.60;87.90
3705;DHT22;1868;48.918;9.438;2022-11-11T13:36:11;19.10;90.70
3705;DHT22;1868;48.918;9.438;2022-11-11T13:39:01;18.90;90.10
3705;DHT22;1868;48.918;9.438;2022-11-11T13:41:50;18.60;91.30
3705;DHT22;1868;48.918;9.438;2022-11-11T13:44:48;18.50;92.90
3705;DHT22;1868;48.918;9.438;2022-11-11T13:47:38;18.30;92.50
3705;DHT22;1868;48.918;9.438;2022-11-11T13:50:31;18.00;94.90
3705;DHT22;1868;48.918;9.438;2022-11-11T13:53:27;17.70;95.70
3705;DHT22;1868;48.918;9.438;2022-11-11T13:56:23;17.60;95.30
3705;DHT22;1868;48.918;9.438;2022-11-11T13:59:20;17.60;95.80
3705;DHT22;1868;48.918;9.438;2022-11-11T14:02:28;17.40;96.60
3705;DHT22;1868;48.918;9.438;2022-11-11T14:05:21;17.20;97.40
3705;DHT22;1868;48.918;9.438;2022-11-11T14:08:49;16.90;97.40
3705;DHT22;1868;48.918;9.438;2022-11-11T14:11:38;16.90;97.40
3705;DHT22;1868;48.918;9.438;2022-11-11T14:14:44;16.90;97.40
3705;DHT22;1868;48.918;9.438;2022-11-11T14:17:42;16.80;97.40
3705;DHT22;1868;48.918;9.438;2022-11-11T14:20:37;16.80;97.40
3705;DHT22;1868;48.918;9.438;2022-11-11T14:23:32;16.60;97.40
3705;DHT22;1868;48.918;9.438;2022-11-11T14:26:28;16.40;97.40
3705;DHT22;1868;48.918;9.438;2022-11-11T14:29:18;16.40;97.40
3705;DHT22;1868;48.918;9.438;2022-11-11T14:35:28;16.30;97.40
3705;DHT22;1868;48.918;9.438;2022-11-11T14:38:41;16.30;97.40
3705;DHT22;1868;48.918;9.438;2022-11-11T14:41:45;16.20;97.40
3705;DHT22;1868;48.918;9.438;2022-11-11T14:44:41;16.20;97.40
3705;DHT22;1868;48.918;9.438;2022-11-11T14:47:33;16.00;97.40
3705;DHT22;1868;48.918;9.438;2022-11-11T14:50:42;15.90;97.40
3705;DHT22;1868;48.918;9.438;2022-11-11T14:53:35;15.80;97.40
3705;DHT22;1868;48.918;9.438;2022-11-11T14:56:23;15.70;97.40
3705;DHT22;1868;48.918;9.438;2022-11-11T14:59:12;15.50;97.40
3705;DHT22;1868;48.918;9.438;2022-11-11T15:02:10;15.40;97.40
3705;DHT22;1868;48.918;9.438;2022-11-11T15:05:10;15.30;97.40
3705;DHT22;1868;48.918;9.438;2022-11-11T15:08:13;15.20;97.40
3705;DHT22;1868;48.918;9.438;2022-11-11T15:11:15;15.10;97.40
3705;DHT22;1868;48.918;9.438;2022-11-11T15:14:18;15.00;97.40
3705;DHT22;1868;48.918;9.438;2022-11-11T15:17:19;14.90;97.40
3705;DHT22;1868;48.918;9.438;2022-11-11T15:20:40;14.80;97.40
3705;DHT22;1868;48.918;9.438;2022-11-11T15:23:41;14.70;97.40
3705;DHT22;1868;48.918;9.438;2022-11-11T15:26:37;14.50;97.40
3705;DHT22;1868;48.918;9.438;2022-11-11T15:29:49;14.30;97.40
3705;DHT22;1868;48.918;9.438;2022-11-11T15:33:01;14.10;97.40
3705;DHT22;1868;48.918;9.438;2022-11-11T15:35:55;13.90;97.40
3705;DHT22;1868;48.918;9.438;2022-11-11T15:38:45;13.60;97.40
3705;DHT22;1868;48.918;9.438;2022-11-11T15:41:36;13.40;97.40
3705;DHT22;1868;48.918;9.438;2022-11-11T15:44:26;13.30;97.40
3705;DHT22;1868;48.918;9.438;2022-11-11T15:47:15;13.10;97.40
3705;DHT22;1868;48.918;9.438;2022-11-11T15:50:15;12.90;97.40
3705;DHT22;1868;48.918;9.438;2022-11-11T15:53:03;12.80;97.40
3705;DHT22;1868;48.918;9.438;2022-11-11T15:55:54;12.60;97.40
3705;DHT22;1868;48.918;9.438;2022-11-11T15:58:41;12.50;97.40
3705;DHT22;1868;48.918;9.438;2022-11-11T16:01:29;12.40;97.40
3705;DHT22;1868;48.918;9.438;2022-11-11T16:04:19;12.30;97.40
3705;DHT22;1868;48.918;9.438;2022-11-11T16:07:33;12.10;97.40
3705;DHT22;1868;48.918;9.438;2022-11-11T16:10:26;11.90;97.40
3705;DHT22;1868;48.918;9.438;2022-11-11T16:13:17;11.80;97.40
3705;DHT22;1868;48.918;9.438;2022-11-11T16:16:09;11.60;97.40
3705;DHT22;1868;48.918;9.438;2022-11-11T16:19:00;11.50;97.40
3705;DHT22;1868;48.918;9.438;2022-11-11T16:21:53;11.40;97.40
3705;DHT22;1868;48.918;9.438;2022-11-11T16:24:42;11.30;97.40
3705;DHT22;1868;48.918;9.438;2022-11-11T16:27:31;11.20;97.40
3705;DHT22;1868;48.918;9.438;2022-11-11T16:30:30;11.00;97.40
3705;DHT22;1868;48.918;9.438;2022-11-11T16:33:31;10.90;97.40
3705;DHT22;1868;48.918;9.438;2022-11-11T16:36:18;10.80;97.40
3705;DHT22;1868;48.918;9.438;2022-11-11T16:39:16;10.70;97.40
3705;DHT22;1868;48.918;9.438;2022-11-11T16:42:16;10.50;97.40
3705;DHT22;1868;48.918;9.438;2022-11-11T16:45:17;10.40;97.40
3705;DHT22;1868;48.918;9.438;2022-11-11T16:51:39;10.10;97.40
3705;DHT22;1868;48.918;9.438;2022-11-11T16:54:30;10.00;97.40
3705;DHT22;1868;48.918;9.438;2022-11-11T16:57:25;9.90;97.40
3705;DHT22;1868;48.918;9.438;2022-11-11T17:00:16;9.80;97.40
3705;DHT22;1868;48.918;9.438;2022-11-11T17:03:13;9.80;97.40
3705;DHT22;1868;48.918;9.438;2022-11-11T17:06:01;9.70;97.40
3705;DHT22;1868;48.918;9.438;2022-11-11T17:08:52;9.60;97.40
3705;DHT22;1868;48.918;9.438;2022-11-11T17:11:43;9.50;97.40
3705;DHT22;1868;48.918;9.438;2022-11-11T17:14:33;9.40;97.40
3705;DHT22;1868;48.918;9.438;2022-11-11T17:17:21;9.40;97.40
3705;DHT22;1868;48.918;9.438;2022-11-11T17:20:10;9.30;97.40
3705;DHT22;1868;48.918;9.438;2022-11-11T17:22:58;9.30;97.40
3705;DHT22;1868;48.918;9.438;2022-11-11T17:25:47;9.20;97.40
3705;DHT22;1868;48.918;9.438;2022-11-11T17:28:35;9.10;97.40
3705;DHT22;1868;48.918;9.438;2022-11-11T17:31:24;9.00;97.40
3705;DHT22;1868;48.918;9.438;2022-11-11T17:34:10;8.90;97.40
3705;DHT22;1868;48.918;9.438;2022-11-11T17:36:58;8.70;97.40
3705;DHT22;1868;48.918;9.438;2022-11-11T17:39:44;8.70;97.40
3705;DHT22;1868;48.918;9.438;2022-11-11T17:42:31;8.60;97.40
3705;DHT22;1868;48.918;9.438;2022-11-11T17:45:19;8.50;97.40
3705;DHT22;1868;48.918;9.438;2022-11-11T17:48:08;8.40;97.40
3705;DHT22;1868;48.918;9.438;2022-11-11T17:50:55;8.30;97.40
3705;DHT22;1868;48.918;9.438;2022-11-11T17:53:41;8.20;97.40
3705;DHT22;1868;48.918;9.438;2022-11-11T17:56:29;8.20;97.40
3705;DHT22;1868;48.918;9.438;2022-11-11T17:59:16;8.10;97.40
3705;DHT22;1868;48.918;9.438;2022-11-11T18:02:02;8.00;97.40
3705;DHT22;1868;48.918;9.438;2022-11-11T18:04:51;8.00;97.40
3705;DHT22;1868;48.918;9.438;2022-11-11T18:07:38;7.90;97.40
3705;DHT22;1868;48.918;9.438;2022-11-11T18:10:29;7.80;97.40
3705;DHT22;1868;48.918;9.438;2022-11-11T18:13:16;7.80;97.40
3705;DHT22;1868;48.918;9.438;2022-11-11T18:16:03;7.70;97.40
3705;DHT22;1868;48.918;9.438;2022-11-11T18:18:51;7.70;97.40
3705;DHT22;1868;48.918;9.438;2022-11-11T18:21:40;7.60;97.40
3705;DHT22;1868;48.918;9.438;2022-11-11T18:24:27;7.50;97.40
3705;DHT22;1868;48.918;9.438;2022-11-11T18:27:14;7.50;97.40
3705;DHT22;1868;48.918;9.438;2022-11-11T18:30:01;7.40;97.40
3705;DHT22;1868;48.918;9.438;2022-11-11T18:32:47;7.30;97.40
3705;DHT22;1868;48.918;9.438;2022-11-11T18:35:34;7.30;97.40
3705;DHT22;1868;48.918;9.438;2022-11-11T18:38:22;7.30;97.40
3705;DHT22;1868;48.918;9.438;2022-11-11T18:41:10;7.20;97.40
3705;DHT22;1868;48.918;9.438;2022-11-11T18:43:57;7.20;97.40
3705;DHT22;1868;48.918;9.438;2022-11-11T18:46:44;7.20;97.40
3705;DHT22;1868;48.918;9.438;2022-11-11T18:49:31;7.20;97.40
3705;DHT22;1868;48.918;9.438;2022-11-11T18:52:17;7.10;97.40
3705;DHT22;1868;48.918;9.438;2022-11-11T18:55:06;7.00;97.40
3705;DHT22;1868;48.918;9.438;2022-11-11T18:57:53;7.00;97.40
3705;DHT22;1868;48.918;9.438;2022-11-11T19:00:40;6.90;97.40
3705;DHT22;1868;48.918;9.438;2022-11-11T19:03:27;6.90;97.40
3705;DHT22;1868;48.918;9.438;2022-11-11T19:06:14;6.80;97.40
3705;DHT22;1868;48.918;9.438;2022-11-11T19:09:02;6.80;97.40
3705;DHT22;1868;48.918;9.438;2022-11-11T19:11:52;6.70;97.40